createdAt,value
2023-05-22T00:00:13.561Z,7.00
2023-05-22T00:02:44.601Z,7.82
2023-05-22T00:05:14.335Z,6.83
2023-05-22T00:07:43.615Z,7.82
2023-05-22T00:10:11.413Z,7.60
2023-05-22T00:12:39.027Z,7.57
2023-05-22T00:15:07.284Z,7.40
2023-05-22T00:17:35.548Z,7.20
2023-05-22T00:20:07.107Z,7.68
2023-05-22T00:22:35.678Z,7.40
2023-05-22T00:25:07.449Z,7.60
2023-05-22T00:27:35.083Z,7.75
2023-05-22T00:30:02.793Z,7.20
2023-05-22T00:32:30.584Z,7.88
2023-05-22T00:34:58.365Z,7.60
2023-05-22T00:37:26.404Z,7.80
2023-05-22T00:39:53.979Z,6.72
2023-05-22T00:42:22.844Z,6.90
2023-05-22T00:44:50.611Z,7.80
2023-05-22T00:47:18.238Z,7.35
2023-05-22T00:49:46.567Z,7.47
2023-05-22T00:52:14.709Z,7.95
2023-05-22T00:54:43.410Z,6.77
2023-05-22T00:57:11.460Z,8.00
2023-05-22T00:59:39.124Z,7.88
2023-05-22T01:02:06.958Z,8.20
2023-05-22T01:04:35.341Z,7.93
2023-05-22T01:07:03.342Z,9.00
2023-05-22T01:09:31.246Z,8.90
2023-05-22T01:12:09.582Z,8.80
2023-05-22T01:15:06.345Z,8.90
2023-05-22T01:18:04.453Z,9.75
2023-05-22T01:20:33.545Z,8.40
2023-05-22T01:23:35.440Z,9.20
2023-05-22T01:26:09.521Z,9.13
2023-05-22T01:28:59.771Z,9.88
2023-05-22T01:31:29.384Z,9.65
2023-05-22T01:34:00.276Z,10.30
2023-05-22T01:36:32.425Z,9.98
2023-05-22T01:39:01.775Z,9.80
2023-05-22T01:41:30.000Z,9.63
2023-05-22T01:43:57.961Z,11.27
2023-05-22T01:46:29.515Z,10.87
2023-05-22T01:48:58.138Z,11.00
2023-05-22T01:51:52.116Z,9.68
2023-05-22T01:54:26.994Z,10.60
2023-05-22T01:57:09.917Z,8.75
2023-05-22T01:59:48.609Z,9.93
2023-05-22T02:02:20.719Z,8.85
2023-05-22T02:05:09.675Z,4.78
2023-05-22T02:07:39.759Z,3.05
2023-05-22T02:10:10.487Z,2.03
2023-05-22T02:12:39.641Z,1.40
2023-05-22T02:15:08.780Z,1.17
2023-05-22T02:17:43.111Z,1.13
2023-05-22T02:20:15.200Z,1.20
2023-05-22T02:22:46.512Z,0.82
2023-05-22T02:25:17.152Z,1.03
2023-05-22T02:27:47.200Z,1.00
2023-05-22T02:30:15.772Z,1.08
2023-05-22T02:32:45.566Z,1.00
2023-05-22T02:35:13.238Z,0.95
2023-05-22T02:37:41.143Z,1.00
2023-05-22T02:40:10.222Z,0.85
2023-05-22T02:42:37.829Z,0.77
2023-05-22T02:45:06.839Z,1.08
2023-05-22T02:47:35.033Z,0.90
2023-05-22T02:50:02.759Z,0.93
2023-05-22T02:52:31.678Z,1.02
2023-05-22T02:54:59.462Z,0.82
2023-05-22T02:57:27.227Z,1.30
2023-05-22T02:59:54.816Z,0.80
2023-05-22T03:02:22.406Z,0.70
2023-05-22T03:04:50.525Z,0.88
2023-05-22T03:07:20.037Z,1.10
2023-05-22T03:09:47.829Z,0.70
2023-05-22T03:12:15.360Z,0.90
2023-05-22T03:14:42.991Z,1.30
2023-05-22T03:17:10.630Z,1.00
2023-05-22T03:19:38.240Z,0.90
2023-05-22T03:22:06.696Z,0.90
2023-05-22T03:24:35.366Z,0.90
2023-05-22T03:27:02.987Z,1.07
2023-05-22T03:29:37.640Z,0.60
2023-05-22T03:32:05.800Z,1.00
2023-05-22T03:34:33.400Z,1.15
2023-05-22T03:37:02.640Z,0.98
2023-05-22T03:39:30.388Z,0.60
2023-05-22T03:42:02.992Z,0.80
2023-05-22T03:44:30.644Z,0.90
2023-05-22T03:46:58.305Z,0.80
2023-05-22T03:49:26.021Z,1.20
2023-05-22T03:51:53.610Z,1.00
2023-05-22T03:54:22.325Z,0.93
2023-05-22T03:56:54.400Z,0.73
2023-05-22T03:59:22.213Z,1.00
2023-05-22T04:01:50.911Z,0.93
2023-05-22T04:04:18.730Z,1.00
2023-05-22T04:06:47.298Z,1.00
2023-05-22T04:09:15.017Z,1.00
2023-05-22T04:11:42.737Z,1.50
2023-05-22T04:14:10.398Z,1.00
2023-05-22T04:16:38.134Z,1.03
2023-05-22T04:19:06.088Z,1.10
2023-05-22T04:21:34.612Z,1.30
2023-05-22T04:24:07.287Z,0.70
2023-05-22T04:26:36.274Z,1.15
2023-05-22T04:29:04.378Z,1.00
2023-05-22T04:31:32.632Z,0.98
2023-05-22T04:34:00.434Z,0.95
2023-05-22T04:36:29.208Z,0.95
2023-05-22T04:38:57.398Z,1.00
2023-05-22T04:41:27.913Z,1.00
2023-05-22T04:43:55.513Z,1.02
2023-05-22T04:46:23.260Z,0.80
2023-05-22T04:48:51.173Z,1.15
2023-05-22T04:51:18.947Z,0.88
2023-05-22T04:53:47.388Z,1.07
2023-05-22T04:56:18.725Z,1.17
2023-05-22T04:58:55.930Z,1.20
2023-05-22T05:01:25.088Z,1.00
2023-05-22T05:03:53.358Z,0.93
2023-05-22T05:06:21.757Z,0.90
2023-05-22T05:08:50.179Z,0.80
2023-05-22T05:11:18.169Z,1.02
2023-05-22T05:13:45.867Z,0.82
2023-05-22T05:16:13.493Z,0.82
2023-05-22T05:18:41.108Z,1.03
2023-05-22T05:21:09.105Z,0.98
2023-05-22T05:23:36.993Z,1.00
2023-05-22T05:26:04.862Z,0.75
2023-05-22T05:28:32.576Z,0.90
2023-05-22T05:31:01.972Z,1.07
2023-05-22T05:33:49.012Z,1.00
2023-05-22T05:36:29.420Z,0.93
2023-05-22T05:38:58.590Z,1.08
2023-05-22T05:41:27.078Z,0.95
2023-05-22T05:44:06.953Z,0.60
2023-05-22T05:46:36.009Z,0.85
2023-05-22T05:49:10.238Z,0.85
2023-05-22T05:51:39.503Z,0.85
2023-05-22T05:54:09.673Z,0.80
2023-05-22T05:56:37.804Z,0.83
2023-05-22T05:59:05.864Z,0.77
2023-05-22T06:01:35.432Z,1.10
2023-05-22T06:04:05.663Z,1.02
2023-05-22T06:06:39.419Z,0.90
2023-05-22T06:09:07.600Z,0.97
2023-05-22T06:11:48.136Z,1.08
2023-05-22T06:14:16.000Z,1.05
2023-05-22T06:16:44.252Z,1.00
2023-05-22T06:19:12.466Z,1.00
2023-05-22T06:21:40.102Z,1.00
2023-05-22T06:24:07.887Z,1.42
2023-05-22T06:26:35.659Z,0.80
2023-05-22T06:29:03.450Z,1.20
2023-05-22T06:31:35.498Z,1.08
2023-05-22T06:34:04.008Z,0.90
2023-05-22T06:36:31.914Z,1.10
2023-05-22T06:38:59.525Z,1.00
2023-05-22T06:41:50.295Z,1.08
2023-05-22T06:44:18.021Z,1.13
2023-05-22T06:46:45.736Z,0.87
2023-05-22T06:52:31.933Z,1.15
2023-05-22T06:55:08.062Z,1.33
2023-05-22T06:57:51.074Z,1.30
2023-05-22T07:00:21.666Z,1.07
2023-05-22T07:03:06.941Z,0.98
2023-05-22T07:05:43.308Z,1.20
2023-05-22T07:08:11.092Z,1.10
2023-05-22T07:10:39.372Z,0.88
2023-05-22T07:13:08.246Z,1.10
2023-05-22T07:15:36.068Z,1.13
2023-05-22T07:18:05.733Z,0.93
2023-05-22T07:20:36.828Z,1.55
2023-05-22T07:23:12.888Z,1.50
2023-05-22T07:25:43.837Z,1.17
2023-05-22T07:28:15.747Z,1.48
2023-05-22T07:30:53.219Z,1.50
2023-05-22T07:33:30.278Z,1.20
2023-05-22T07:35:58.162Z,1.60
2023-05-22T07:38:45.965Z,1.40
2023-05-22T07:41:14.114Z,1.05
2023-05-22T07:43:41.746Z,1.05
2023-05-22T07:46:11.794Z,1.20
2023-05-22T07:48:55.508Z,1.17
2023-05-22T07:51:23.266Z,1.20
2023-05-22T07:53:53.972Z,1.70
2023-05-22T07:56:28.285Z,1.38
2023-05-22T07:59:14.977Z,1.40
2023-05-22T08:02:19.562Z,1.20
2023-05-22T08:04:56.393Z,1.37
2023-05-22T08:07:24.140Z,1.73
2023-05-22T08:09:51.805Z,1.00
2023-05-22T08:13:06.774Z,1.13
2023-05-22T08:15:34.806Z,1.40
2023-05-22T08:18:02.506Z,1.27
2023-05-22T08:20:33.868Z,1.25
2023-05-22T08:23:01.546Z,1.42
2023-05-22T08:26:11.567Z,1.70
2023-05-22T08:29:38.686Z,1.08
2023-05-22T08:32:15.333Z,1.30
2023-05-22T08:34:48.215Z,1.23
2023-05-22T08:37:18.417Z,1.45
2023-05-22T08:39:46.109Z,1.40
2023-05-22T08:42:13.965Z,1.40
2023-05-22T08:44:41.775Z,1.60
2023-05-22T08:48:13.925Z,1.42
2023-05-22T08:50:46.359Z,1.63
2023-05-22T08:56:31.013Z,1.20
2023-05-22T08:59:00.895Z,1.30
2023-05-22T09:10:25.059Z,1.63
2023-05-22T09:13:04.349Z,1.20
2023-05-22T09:15:32.781Z,1.40
2023-05-22T09:18:01.273Z,1.27
2023-05-22T09:20:28.895Z,1.10
2023-05-22T09:22:57.175Z,1.20
2023-05-22T09:25:26.586Z,1.10
2023-05-22T09:27:54.324Z,1.40
2023-05-22T09:30:22.052Z,1.30
2023-05-22T09:32:49.796Z,1.23
2023-05-22T09:35:19.323Z,1.05
2023-05-22T09:37:49.962Z,1.10
2023-05-22T09:40:17.914Z,1.13
2023-05-22T09:42:46.036Z,1.10
2023-05-22T09:45:13.927Z,1.30
2023-05-22T09:47:41.725Z,1.42
2023-05-22T09:50:10.876Z,1.48
2023-05-22T09:52:38.906Z,1.20
2023-05-22T09:55:08.807Z,1.35
2023-05-22T09:57:46.676Z,1.30
2023-05-22T10:00:18.207Z,1.00
2023-05-22T10:02:50.095Z,1.27
2023-05-22T10:05:22.128Z,0.90
2023-05-22T10:07:57.831Z,1.27
2023-05-22T10:10:25.747Z,1.23
2023-05-22T10:13:05.289Z,1.10
2023-05-22T10:15:33.085Z,1.55
2023-05-22T10:18:01.567Z,1.10
2023-05-22T10:20:30.215Z,1.45
2023-05-22T10:22:57.882Z,1.45
2023-05-22T10:25:28.709Z,1.30
2023-05-22T10:27:57.950Z,1.50
2023-05-22T10:30:28.550Z,1.43
2023-05-22T10:33:29.746Z,1.67
2023-05-22T10:37:17.280Z,1.20
2023-05-22T10:44:02.819Z,1.50
2023-05-22T10:46:55.547Z,1.83
2023-05-22T10:49:24.110Z,1.48
2023-05-22T10:51:58.395Z,1.60
2023-05-22T10:58:16.618Z,1.25
2023-05-22T11:00:44.991Z,1.37
2023-05-22T11:03:18.364Z,1.60
2023-05-22T11:05:53.185Z,1.50
2023-05-22T11:08:26.890Z,1.58
2023-05-22T11:10:56.468Z,1.90
2023-05-22T11:13:29.397Z,1.60
2023-05-22T11:16:06.069Z,1.70
2023-05-22T11:18:37.375Z,1.45
2023-05-22T11:21:06.198Z,1.45
2023-05-22T11:23:35.174Z,1.40
2023-05-22T11:26:25.573Z,1.50
2023-05-22T11:28:55.787Z,1.35
2023-05-22T11:31:24.470Z,1.50
2023-05-22T11:33:53.197Z,1.40
2023-05-22T11:36:21.276Z,1.45
2023-05-22T11:38:48.942Z,1.70
2023-05-22T11:41:17.232Z,1.65
2023-05-22T11:43:45.402Z,1.10
2023-05-22T11:46:14.171Z,1.45
2023-05-22T11:48:43.071Z,1.70
2023-05-22T11:51:10.838Z,1.40
2023-05-22T11:53:38.790Z,1.77
2023-05-22T11:56:07.002Z,1.20
2023-05-22T11:58:34.789Z,1.33
2023-05-22T12:01:03.631Z,1.38
2023-05-22T12:03:32.464Z,1.60
2023-05-22T12:06:01.941Z,1.60
2023-05-22T12:08:29.978Z,1.52
2023-05-22T12:10:57.649Z,1.60
2023-05-22T12:13:27.186Z,1.75
2023-05-22T12:15:58.038Z,1.53
2023-05-22T12:18:26.626Z,1.55
2023-05-22T12:20:57.101Z,1.60
2023-05-22T12:23:26.408Z,1.70
2023-05-22T12:26:08.664Z,1.60
2023-05-22T12:28:38.877Z,1.93
2023-05-22T12:31:06.469Z,1.30
2023-05-22T12:33:34.526Z,1.35
2023-05-22T12:36:08.003Z,1.55
2023-05-22T12:38:39.372Z,1.23
2023-05-22T12:41:07.234Z,1.70
2023-05-22T12:43:34.941Z,1.73
2023-05-22T12:46:03.034Z,2.42
2023-05-22T12:48:30.740Z,2.03
2023-05-22T12:50:58.394Z,1.60
2023-05-22T12:53:26.010Z,1.77
2023-05-22T12:55:53.663Z,1.30
2023-05-22T12:58:21.212Z,1.50
2023-05-22T13:00:48.918Z,1.70
2023-05-22T13:03:16.565Z,1.70
2023-05-22T13:05:44.492Z,1.40
2023-05-22T13:08:12.563Z,1.70
2023-05-22T13:10:40.185Z,1.38
2023-05-22T13:13:07.749Z,1.33
2023-05-22T13:15:36.316Z,1.20
2023-05-22T13:18:04.359Z,1.80
2023-05-22T13:20:32.139Z,1.35
2023-05-22T13:22:59.712Z,1.52
2023-05-22T13:25:27.297Z,1.60
2023-05-22T13:27:54.933Z,2.28
2023-05-22T13:30:22.598Z,1.97
2023-05-22T13:32:50.320Z,1.50
2023-05-22T13:35:18.487Z,1.60
2023-05-22T13:37:47.064Z,1.77
2023-05-22T13:40:15.650Z,2.22
2023-05-22T13:42:43.663Z,1.63
2023-05-22T13:45:11.852Z,1.88
2023-05-22T13:47:39.593Z,1.83
2023-05-22T13:50:07.985Z,1.63
2023-05-22T13:52:35.961Z,1.90
2023-05-22T13:55:03.965Z,1.87
2023-05-22T13:57:31.587Z,1.58
2023-05-22T13:59:59.232Z,1.73
2023-05-22T14:02:26.845Z,1.33
2023-05-22T14:04:54.496Z,1.98
2023-05-22T14:07:22.183Z,1.80
2023-05-22T14:09:49.897Z,2.03
2023-05-22T14:12:17.575Z,1.65
2023-05-22T14:14:45.231Z,1.60
2023-05-22T14:17:12.794Z,1.52
2023-05-22T14:19:40.640Z,1.50
2023-05-22T14:22:08.353Z,1.75
2023-05-22T14:24:35.949Z,1.70
2023-05-22T14:27:03.866Z,1.70
2023-05-22T14:29:31.496Z,1.58
2023-05-22T14:32:07.306Z,1.47
2023-05-22T14:34:35.019Z,1.67
2023-05-22T14:37:02.646Z,1.60
2023-05-22T14:39:30.249Z,1.40
2023-05-22T14:41:58.134Z,2.22
2023-05-22T14:44:25.880Z,1.40
2023-05-22T14:46:54.667Z,1.30
2023-05-22T14:49:22.361Z,1.40
2023-05-22T14:51:50.025Z,1.58
2023-05-22T14:54:23.601Z,1.58
2023-05-22T14:56:51.350Z,1.50
2023-05-22T14:59:19.075Z,1.20
2023-05-22T15:01:50.255Z,1.50
2023-05-22T15:04:18.340Z,1.48
2023-05-22T15:06:46.276Z,1.17
2023-05-22T15:09:14.015Z,1.70
2023-05-22T15:11:45.762Z,1.13
2023-05-22T15:14:13.417Z,0.98
2023-05-22T15:16:41.417Z,1.50
2023-05-22T15:19:09.563Z,1.20
2023-05-22T15:21:37.275Z,1.27
2023-05-22T15:24:05.060Z,1.10
2023-05-22T15:26:32.679Z,1.40
2023-05-22T15:29:01.484Z,1.25
2023-05-22T15:31:31.322Z,1.13
2023-05-22T15:33:59.093Z,1.13
2023-05-22T15:36:28.763Z,1.08
2023-05-22T15:38:56.669Z,1.85
2023-05-22T15:41:24.285Z,1.08
2023-05-22T15:43:55.508Z,1.20
2023-05-22T15:46:23.175Z,1.53
2023-05-22T15:48:51.005Z,1.00
2023-05-22T15:51:18.825Z,1.17
2023-05-22T15:53:46.380Z,1.10
2023-05-22T15:56:14.143Z,1.02
2023-05-22T15:58:41.794Z,1.30
2023-05-22T16:01:09.563Z,1.25
2023-05-22T16:03:37.439Z,1.00
2023-05-22T16:06:06.914Z,1.10
2023-05-22T16:08:34.507Z,1.20
2023-05-22T16:11:02.186Z,1.00
2023-05-22T16:13:30.043Z,1.10
2023-05-22T16:15:57.717Z,0.95
2023-05-22T16:18:25.452Z,2.33
2023-05-22T16:20:53.115Z,1.17
2023-05-22T16:23:20.680Z,1.57
2023-05-22T16:25:50.716Z,1.10
2023-05-22T16:28:18.508Z,0.88
2023-05-22T16:30:48.757Z,1.08
2023-05-22T16:33:16.489Z,1.20
2023-05-22T16:35:47.064Z,0.77
2023-05-22T16:38:14.828Z,1.67
2023-05-22T16:40:42.460Z,1.33
2023-05-22T16:43:10.154Z,1.10
2023-05-22T16:45:38.287Z,1.10
2023-05-22T16:48:06.066Z,1.17
2023-05-22T16:50:33.885Z,0.82
2023-05-22T16:53:09.158Z,1.00
2023-05-22T16:55:36.770Z,0.90
2023-05-22T16:58:04.343Z,1.23
2023-05-22T17:00:31.996Z,1.20
2023-05-22T17:03:04.235Z,1.13
2023-05-22T17:05:34.823Z,1.00
2023-05-22T17:08:03.547Z,0.93
2023-05-22T17:10:31.430Z,1.20
2023-05-22T17:12:59.153Z,1.10
2023-05-22T17:15:26.801Z,1.10
2023-05-22T17:17:54.485Z,1.10
2023-05-22T17:20:23.189Z,1.45
2023-05-22T17:22:51.025Z,1.35
2023-05-22T17:25:18.795Z,1.00
2023-05-22T17:27:46.679Z,1.27
2023-05-22T17:30:14.337Z,1.25
2023-05-22T17:32:42.086Z,1.20
2023-05-22T17:35:09.824Z,1.38
2023-05-22T17:37:37.525Z,1.40
2023-05-22T17:40:06.483Z,1.23
2023-05-22T17:42:35.788Z,1.00
2023-05-22T17:45:03.621Z,1.10
2023-05-22T17:47:32.405Z,1.23
2023-05-22T17:50:00.000Z,1.20
2023-05-22T17:52:27.622Z,1.40
2023-05-22T17:54:56.040Z,1.17
2023-05-22T17:57:23.705Z,1.38
2023-05-22T17:59:51.363Z,1.48
2023-05-22T18:02:19.265Z,2.03
2023-05-22T18:04:48.561Z,1.20
2023-05-22T18:07:17.213Z,1.50
2023-05-22T18:09:44.806Z,1.40
2023-05-22T18:12:30.313Z,1.13
2023-05-22T18:14:59.500Z,1.20
2023-05-22T18:17:27.127Z,1.23
2023-05-22T18:19:54.688Z,1.30
2023-05-22T18:35:39.711Z,1.10
2023-05-22T18:38:07.975Z,1.20
2023-05-22T18:44:24.123Z,1.40
2023-05-22T18:46:51.708Z,1.40
2023-05-22T18:49:19.678Z,1.50
2023-05-22T18:51:56.247Z,1.20
2023-05-22T18:54:24.245Z,1.63
2023-05-22T19:11:56.889Z,1.48
2023-05-22T19:21:49.485Z,1.35
2023-05-22T19:32:39.037Z,1.25
2023-05-22T19:35:07.629Z,1.10
2023-05-22T19:37:35.411Z,1.33
2023-05-22T19:40:03.112Z,1.52
2023-05-22T19:42:30.827Z,1.33
2023-05-22T19:44:59.428Z,1.50
2023-05-22T19:47:27.465Z,1.30
2023-05-22T19:49:55.156Z,1.40
2023-05-22T19:52:22.942Z,1.63
2023-05-22T19:55:45.182Z,1.73
2023-05-22T19:58:12.997Z,1.38
2023-05-22T20:00:41.631Z,1.20
2023-05-22T20:03:09.850Z,1.30
2023-05-22T20:05:37.891Z,1.48
2023-05-22T20:08:08.444Z,1.30
2023-05-22T20:10:40.189Z,1.17
2023-05-22T20:13:08.297Z,1.40
2023-05-22T20:15:35.861Z,1.50
2023-05-22T20:18:04.001Z,1.30
2023-05-22T20:20:31.662Z,1.27
2023-05-22T20:22:59.657Z,1.25
2023-05-22T20:26:14.918Z,1.47
2023-05-22T20:29:59.876Z,1.23
2023-05-22T20:32:28.369Z,1.27
2023-05-22T20:35:34.000Z,1.13
2023-05-22T20:38:03.332Z,1.23
2023-05-22T20:40:32.518Z,1.23
2023-05-22T20:43:03.821Z,1.45
2023-05-22T20:45:31.562Z,1.45
2023-05-22T20:47:59.306Z,1.50
2023-05-22T20:50:27.427Z,2.17
2023-05-22T20:53:04.074Z,1.70
2023-05-22T20:55:32.741Z,1.20
2023-05-22T20:58:00.813Z,1.15
2023-05-22T21:04:17.010Z,1.30
2023-05-22T21:06:44.658Z,1.10
2023-05-22T21:09:50.164Z,1.30
2023-05-22T21:12:17.841Z,1.50
2023-05-22T21:14:47.076Z,1.15
2023-05-22T21:17:16.060Z,1.50
2023-05-22T21:20:11.812Z,1.10
2023-05-22T21:26:39.538Z,1.50
2023-05-22T21:33:13.854Z,1.00
2023-05-22T21:35:41.625Z,1.63
2023-05-22T21:38:09.232Z,1.40
2023-05-22T21:40:36.833Z,1.45
2023-05-22T21:43:04.848Z,1.50
2023-05-22T21:45:32.464Z,1.35
2023-05-22T21:48:00.122Z,1.10
2023-05-22T21:50:27.821Z,1.50
2023-05-22T21:52:56.168Z,1.52
2023-05-22T21:55:24.014Z,1.63
2023-05-22T21:58:06.753Z,1.55
2023-05-22T22:00:34.485Z,1.43
2023-05-22T22:03:02.142Z,1.70
2023-05-22T22:05:29.861Z,1.27
2023-05-22T22:07:59.197Z,2.00
2023-05-22T22:10:27.073Z,1.17
2023-05-22T22:12:54.641Z,1.60
2023-05-22T22:15:22.324Z,1.35
2023-05-22T22:17:50.212Z,1.17
2023-05-22T22:20:24.769Z,1.42
2023-05-22T22:23:06.385Z,1.63
2023-05-22T22:25:59.939Z,1.40
2023-05-22T22:28:27.728Z,1.33
2023-05-22T22:30:55.556Z,1.67
2023-05-22T22:33:23.215Z,1.63
2023-05-22T22:35:52.304Z,1.55
2023-05-22T22:38:20.021Z,1.60
2023-05-22T22:40:47.930Z,1.20
2023-05-22T22:43:15.617Z,1.70
2023-05-22T22:49:27.794Z,1.58
2023-05-22T22:51:55.309Z,1.30
2023-05-22T22:54:23.852Z,1.33
2023-05-22T22:56:51.611Z,1.50
2023-05-22T22:59:19.272Z,1.50
2023-05-22T23:01:47.166Z,1.50
2023-05-22T23:04:15.106Z,1.23
2023-05-22T23:06:42.931Z,1.60
2023-05-22T23:09:11.322Z,1.50
2023-05-22T23:14:59.001Z,1.48
2023-05-22T23:17:26.650Z,1.23
2023-05-22T23:19:54.376Z,2.10
2023-05-22T23:22:21.993Z,1.30
2023-05-22T23:24:49.659Z,1.52
2023-05-22T23:27:37.734Z,1.23
2023-05-22T23:30:06.531Z,1.57
2023-05-22T23:32:34.195Z,1.60
2023-05-22T23:35:01.884Z,1.90
2023-05-22T23:37:29.848Z,1.83
2023-05-22T23:39:57.472Z,1.30
2023-05-22T23:42:25.838Z,1.77
2023-05-22T23:44:53.495Z,1.38
2023-05-22T23:51:27.813Z,1.98
2023-05-22T23:53:55.631Z,2.35
2023-05-22T23:56:23.309Z,1.50
2023-05-22T23:58:50.967Z,1.27
